Flight Track Log - Related Links

Times and Time Zones

All times are in EDT time to prevent confusion due to time zone crossing. See the CTL21 flight status page for this flight to view local times or setup timezone preferences in your user account.

Time Position Orientation Groundspeed Altitude Reporting Facility
EDT Latitude Longitude Course Direction KTS MPH feet Rate Location/Type
Wed 05:16:15 PM 42.2314 -85.5346 109° East  Level FlightAware Approximate
Wed 05:17:15 PM 42.2197 -85.4669 109° East  Level FlightAware Approximate
Wed 05:18:15 PM 42.1774 -85.4343 108° East  Level FlightAware Approximate
Wed 05:19:15 PM 42.1660 -85.3652 109° East  Level FlightAware Approximate
Wed 05:20:15 PM 42.1317 -85.3119 108° East  Level FlightAware Approximate
Wed 05:21:15 PM 42.1207 -85.2427 108° East  Level FlightAware Approximate
Wed 05:22:15 PM 42.1096 -85.1736 108° East  Level FlightAware Approximate
Wed 05:23:15 PM 42.0710 -85.1363 108° East  Level FlightAware Approximate
Wed 05:24:15 PM 42.0605 -85.0670 108° East  Level FlightAware Approximate
Wed 05:25:15 PM 42.0499 -84.9978 108° East  Level FlightAware Approximate
Wed 05:26:15 PM 42.0393 -84.9286 108° East  Level FlightAware Approximate
Wed 05:27:15 PM 42.0287 -84.8594 109° East  Level FlightAware Approximate
Wed 05:28:15 PM 42.0180 -84.7902 109° East  Level FlightAware Approximate
Wed 05:29:15 PM 42.0073 -84.7211 109° East  Level FlightAware Approximate
Wed 05:30:15 PM 41.9965 -84.6520 110° East  Level FlightAware Approximate
Wed 05:31:15 PM 41.9857 -84.5829 110° East  Level FlightAware Approximate
Wed 05:32:15 PM 41.9748 -84.5138 110° East  Level FlightAware Approximate
Wed 05:33:15 PM 41.9639 -84.4448 111° Southeast  Level FlightAware Approximate
Wed 05:34:15 PM 41.9530 -84.3758 111° Southeast  Level FlightAware Approximate
Wed 05:35:15 PM 41.9420 -84.3068 112° Southeast  Level FlightAware Approximate
Wed 05:36:15 PM 41.9310 -84.2378 112° Southeast  Level FlightAware Approximate
Wed 05:37:15 PM 41.9199 -84.1689 113° Southeast  Level FlightAware Approximate
Wed 05:38:15 PM 41.9088 -84.0999 113° Southeast  Level FlightAware Approximate
Wed 05:39:15 PM 41.8977 -84.0310 114° Southeast  Level FlightAware Approximate
Wed 05:40:15 PM 41.8865 -83.9622 115° Southeast  Level FlightAware Approximate
Wed 05:41:15 PM 41.8753 -83.8933 116° Southeast  Level FlightAware Approximate
Wed 05:42:15 PM 41.8640 -83.8245 117° Southeast  Level FlightAware Approximate
Wed 05:43:15 PM 41.8527 -83.7557 118° Southeast  Level FlightAware Approximate
Wed 05:44:15 PM 41.8413 -83.6869 119° Southeast  Level FlightAware Approximate
Wed 05:45:15 PM 41.8299 -83.6181 120° Southeast  Level FlightAware Approximate
Wed 05:46:15 PM 41.8185 -83.5494 122° Southeast  Level FlightAware Approximate
Wed 05:47:15 PM 41.8070 -83.4807 124° Southeast  Level FlightAware Approximate
Wed 05:48:15 PM 41.7955 -83.4120 127° Southeast  Level FlightAware Approximate
Wed 05:49:15 PM 41.7840 -83.3434 130° Southeast  Level FlightAware Approximate
Wed 05:50:15 PM 41.7724 -83.2747 134° Southeast  Level FlightAware Approximate
Wed 05:51:15 PM 41.7607 -83.2061 139° Southeast  Level FlightAware Approximate
Wed 05:52:15 PM 41.7491 -83.1375 145° Southeast  Level FlightAware Approximate
Wed 05:53:15 PM 41.7373 -83.0690 154° Southeast  Level FlightAware Approximate
Wed 05:54:15 PM 41.7256 -83.0005 166° South  Level FlightAware Approximate
Wed 05:55:15 PM 41.7138 -82.9320 180° South  Level FlightAware Approximate
Wed 05:56:19 PM 41.5272 -82.9325 88° East 203 234 7,100  Level Cleveland Center
Wed 05:57:20 PM 41.5289 -82.8575 91° East 203 234 7,100  Level Cleveland Center
Wed 05:58:20 PM 41.5281 -82.7856 89° East 198 228 7,100  Level Cleveland Center
Wed 05:59:21 PM 41.5294 -82.7106 86° East 200 230 7,100  Level Cleveland Center
Wed 06:00:22 PM 41.5331 -82.6358 93° East 197 227 7,100 -33 Level Cleveland Center
Wed 06:02:24 PM 41.5272 -82.4858 91° East 200 230 7,000 -231 Descending Cleveland Center
Wed 06:03:24 PM 41.5264 -82.4025 89° East 214 246 6,400 -595 Descending Cleveland Center
Wed 06:04:25 PM 41.5278 -82.3222 75° East 218 251 5,800 -590 Descending Cleveland Center
Wed 06:05:26 PM 41.5436 -82.2450 79° East 216 249 5,200 -639 Descending Cleveland Center
Wed 06:06:27 PM 41.5550 -82.1647 76° East 216 249 4,500 -541 Descending Cleveland Center
Wed 06:07:28 PM 41.5708 -82.0819 81° East 214 246 4,100 -496 Descending Cleveland Center
Wed 06:08:28 PM 41.5800 -82.0072 79° East 207 238 3,500 -645 Descending Cleveland Center
Wed 06:09:29 PM 41.5914 -81.9297 89° East 208 239 2,800 -689 Descending Cleveland Center
Wed 06:10:30 PM 41.5922 -81.8575 103° East 199 229 2,100 -492 Descending Cleveland Center
Wed 06:11:31 PM 41.5806 -81.7878 108° East 189 217 1,800 -246 Descending Cleveland Center
Wed 06:12:32 PM 41.5664 -81.7294 130° Southeast 168 193 1,600 -197 Descending Cleveland Center
Wed 06:13:33 PM 41.5378 -81.6844 130° Southeast 149 171 1,400 -197 Descending Cleveland Center

Login

Don't have an account? Register now (free) for customized features, flight alerts, and more!